sensor_id;sensor_type;location;lat;lon;timestamp;P1;durP1;ratioP1;P2;durP2;ratioP2
60426;SDS011;46274;47.168;27.604;2023-04-28T00:05:51;9.47;;;2.30;;
60426;SDS011;46274;47.168;27.604;2023-04-28T00:11:55;7.23;;;2.07;;
60426;SDS011;46274;47.168;27.604;2023-04-28T00:17:57;8.93;;;1.93;;
60426;SDS011;46274;47.168;27.604;2023-04-28T00:24:00;8.93;;;2.10;;
60426;SDS011;46274;47.168;27.604;2023-04-28T00:30:02;5.07;;;1.63;;
60426;SDS011;46274;47.168;27.604;2023-04-28T00:36:12;7.77;;;2.40;;
60426;SDS011;46274;47.168;27.604;2023-04-28T00:42:16;8.20;;;2.10;;
60426;SDS011;46274;47.168;27.604;2023-04-28T00:48:32;5.20;;;2.10;;
60426;SDS011;46274;47.168;27.604;2023-04-28T00:54:35;8.13;;;2.33;;
60426;SDS011;46274;47.168;27.604;2023-04-28T01:00:44;8.57;;;2.60;;
60426;SDS011;46274;47.168;27.604;2023-04-28T01:06:48;4.03;;;1.80;;
60426;SDS011;46274;47.168;27.604;2023-04-28T01:12:53;9.83;;;2.30;;
60426;SDS011;46274;47.168;27.604;2023-04-28T01:18:57;17.63;;;6.17;;
60426;SDS011;46274;47.168;27.604;2023-04-28T01:25:10;6.83;;;2.73;;
60426;SDS011;46274;47.168;27.604;2023-04-28T01:31:14;10.77;;;2.57;;
60426;SDS011;46274;47.168;27.604;2023-04-28T01:37:31;5.87;;;2.40;;
60426;SDS011;46274;47.168;27.604;2023-04-28T01:43:40;6.37;;;2.20;;
60426;SDS011;46274;47.168;27.604;2023-04-28T01:49:45;7.63;;;2.63;;
60426;SDS011;46274;47.168;27.604;2023-04-28T01:55:52;9.33;;;2.80;;
60426;SDS011;46274;47.168;27.604;2023-04-28T02:01:58;5.23;;;2.13;;
60426;SDS011;46274;47.168;27.604;2023-04-28T02:08:00;6.47;;;2.50;;
60426;SDS011;46274;47.168;27.604;2023-04-28T02:14:04;5.87;;;2.40;;
60426;SDS011;46274;47.168;27.604;2023-04-28T02:20:11;5.57;;;2.20;;
60426;SDS011;46274;47.168;27.604;2023-04-28T02:26:18;4.80;;;2.47;;
60426;SDS011;46274;47.168;27.604;2023-04-28T02:32:24;10.70;;;2.60;;
60426;SDS011;46274;47.168;27.604;2023-04-28T02:38:28;11.97;;;2.97;;
60426;SDS011;46274;47.168;27.604;2023-04-28T02:44:31;9.80;;;2.73;;
60426;SDS011;46274;47.168;27.604;2023-04-28T02:50:34;5.83;;;2.20;;
60426;SDS011;46274;47.168;27.604;2023-04-28T02:56:41;7.10;;;2.20;;
60426;SDS011;46274;47.168;27.604;2023-04-28T03:02:51;8.93;;;2.60;;
60426;SDS011;46274;47.168;27.604;2023-04-28T03:08:54;5.90;;;2.70;;
60426;SDS011;46274;47.168;27.604;2023-04-28T03:15:16;10.97;;;3.43;;
60426;SDS011;46274;47.168;27.604;2023-04-28T03:21:22;8.90;;;2.37;;
60426;SDS011;46274;47.168;27.604;2023-04-28T03:27:25;6.73;;;2.80;;
60426;SDS011;46274;47.168;27.604;2023-04-28T03:33:28;9.23;;;3.07;;
60426;SDS011;46274;47.168;27.604;2023-04-28T03:39:30;6.57;;;3.00;;
60426;SDS011;46274;47.168;27.604;2023-04-28T03:45:36;8.53;;;3.00;;
60426;SDS011;46274;47.168;27.604;2023-04-28T03:51:40;13.10;;;4.40;;
60426;SDS011;46274;47.168;27.604;2023-04-28T03:57:43;26.03;;;9.77;;
60426;SDS011;46274;47.168;27.604;2023-04-28T04:03:45;18.70;;;6.93;;
60426;SDS011;46274;47.168;27.604;2023-04-28T04:09:51;30.53;;;8.73;;
60426;SDS011;46274;47.168;27.604;2023-04-28T04:16:02;14.37;;;4.70;;
60426;SDS011;46274;47.168;27.604;2023-04-28T04:22:05;13.33;;;4.23;;
60426;SDS011;46274;47.168;27.604;2023-04-28T04:28:10;8.67;;;3.17;;
60426;SDS011;46274;47.168;27.604;2023-04-28T04:34:17;7.17;;;2.67;;
60426;SDS011;46274;47.168;27.604;2023-04-28T04:40:22;10.07;;;3.67;;
60426;SDS011;46274;47.168;27.604;2023-04-28T04:46:25;13.53;;;3.60;;
60426;SDS011;46274;47.168;27.604;2023-04-28T04:52:30;9.03;;;3.80;;
60426;SDS011;46274;47.168;27.604;2023-04-28T04:58:33;10.57;;;4.43;;
60426;SDS011;46274;47.168;27.604;2023-04-28T05:04:40;10.90;;;3.80;;
60426;SDS011;46274;47.168;27.604;2023-04-28T05:10:44;12.63;;;3.63;;
60426;SDS011;46274;47.168;27.604;2023-04-28T05:16:47;12.97;;;4.03;;
60426;SDS011;46274;47.168;27.604;2023-04-28T05:22:50;7.97;;;3.57;;
60426;SDS011;46274;47.168;27.604;2023-04-28T05:29:00;11.30;;;3.37;;
60426;SDS011;46274;47.168;27.604;2023-04-28T05:35:03;10.90;;;4.30;;
60426;SDS011;46274;47.168;27.604;2023-04-28T05:41:07;10.53;;;3.67;;
60426;SDS011;46274;47.168;27.604;2023-04-28T05:47:13;13.00;;;4.23;;
60426;SDS011;46274;47.168;27.604;2023-04-28T05:53:40;9.20;;;3.67;;
60426;SDS011;46274;47.168;27.604;2023-04-28T05:59:50;25.40;;;4.23;;
60426;SDS011;46274;47.168;27.604;2023-04-28T06:05:52;8.37;;;3.60;;
60426;SDS011;46274;47.168;27.604;2023-04-28T06:11:55;12.43;;;4.10;;
60426;SDS011;46274;47.168;27.604;2023-04-28T06:17:59;11.47;;;3.80;;
60426;SDS011;46274;47.168;27.604;2023-04-28T06:24:13;16.23;;;4.33;;
60426;SDS011;46274;47.168;27.604;2023-04-28T06:30:16;10.07;;;3.20;;
60426;SDS011;46274;47.168;27.604;2023-04-28T06:36:24;23.53;;;3.53;;
60426;SDS011;46274;47.168;27.604;2023-04-28T06:42:28;15.17;;;4.97;;
60426;SDS011;46274;47.168;27.604;2023-04-28T06:48:37;10.37;;;2.77;;
60426;SDS011;46274;47.168;27.604;2023-04-28T06:54:46;12.63;;;3.93;;
60426;SDS011;46274;47.168;27.604;2023-04-28T07:00:53;9.27;;;3.30;;
60426;SDS011;46274;47.168;27.604;2023-04-28T07:06:56;7.80;;;3.13;;
60426;SDS011;46274;47.168;27.604;2023-04-28T07:13:01;8.00;;;2.93;;
60426;SDS011;46274;47.168;27.604;2023-04-28T07:19:08;8.43;;;3.37;;
60426;SDS011;46274;47.168;27.604;2023-04-28T07:25:21;7.73;;;2.90;;
60426;SDS011;46274;47.168;27.604;2023-04-28T07:31:33;11.00;;;3.23;;
60426;SDS011;46274;47.168;27.604;2023-04-28T07:37:38;10.40;;;3.40;;
60426;SDS011;46274;47.168;27.604;2023-04-28T07:43:41;8.13;;;3.70;;
60426;SDS011;46274;47.168;27.604;2023-04-28T07:49:44;9.50;;;3.17;;
60426;SDS011;46274;47.168;27.604;2023-04-28T07:55:50;12.13;;;2.90;;
60426;SDS011;46274;47.168;27.604;2023-04-28T08:01:52;6.50;;;2.93;;
60426;SDS011;46274;47.168;27.604;2023-04-28T08:07:58;8.97;;;2.93;;
60426;SDS011;46274;47.168;27.604;2023-04-28T08:14:05;9.37;;;2.90;;
60426;SDS011;46274;47.168;27.604;2023-04-28T08:20:12;11.30;;;3.10;;
60426;SDS011;46274;47.168;27.604;2023-04-28T08:26:17;7.53;;;3.00;;
60426;SDS011;46274;47.168;27.604;2023-04-28T08:32:26;11.30;;;3.40;;
60426;SDS011;46274;47.168;27.604;2023-04-28T08:38:44;9.30;;;2.90;;
60426;SDS011;46274;47.168;27.604;2023-04-28T08:44:51;15.10;;;3.23;;
60426;SDS011;46274;47.168;27.604;2023-04-28T08:51:04;6.20;;;2.93;;
60426;SDS011;46274;47.168;27.604;2023-04-28T08:57:17;13.63;;;2.63;;
60426;SDS011;46274;47.168;27.604;2023-04-28T09:03:25;9.00;;;3.33;;
60426;SDS011;46274;47.168;27.604;2023-04-28T09:09:28;11.20;;;2.60;;
60426;SDS011;46274;47.168;27.604;2023-04-28T09:15:40;20.33;;;2.60;;
60426;SDS011;46274;47.168;27.604;2023-04-28T09:21:54;5.17;;;2.30;;
60426;SDS011;46274;47.168;27.604;2023-04-28T09:28:01;4.87;;;1.83;;
60426;SDS011;46274;47.168;27.604;2023-04-28T09:34:46;7.03;;;2.90;;
60426;SDS011;46274;47.168;27.604;2023-04-28T09:40:58;7.00;;;2.43;;
60426;SDS011;46274;47.168;27.604;2023-04-28T09:47:14;6.40;;;3.10;;
60426;SDS011;46274;47.168;27.604;2023-04-28T09:53:29;15.03;;;3.03;;
60426;SDS011;46274;47.168;27.604;2023-04-28T09:59:35;8.67;;;2.53;;
60426;SDS011;46274;47.168;27.604;2023-04-28T10:05:49;9.73;;;2.60;;
60426;SDS011;46274;47.168;27.604;2023-04-28T10:11:57;10.40;;;2.60;;
60426;SDS011;46274;47.168;27.604;2023-04-28T10:18:12;9.17;;;2.73;;
60426;SDS011;46274;47.168;27.604;2023-04-28T10:24:25;12.33;;;3.17;;
60426;SDS011;46274;47.168;27.604;2023-04-28T10:30:34;10.67;;;2.97;;
60426;SDS011;46274;47.168;27.604;2023-04-28T10:42:53;7.33;;;2.60;;
60426;SDS011;46274;47.168;27.604;2023-04-28T10:48:57;6.17;;;2.40;;
60426;SDS011;46274;47.168;27.604;2023-04-28T11:01:28;6.70;;;2.63;;
60426;SDS011;46274;47.168;27.604;2023-04-28T11:07:37;9.00;;;2.67;;
60426;SDS011;46274;47.168;27.604;2023-04-28T11:13:41;9.73;;;3.27;;
60426;SDS011;46274;47.168;27.604;2023-04-28T11:19:44;8.33;;;2.73;;
60426;SDS011;46274;47.168;27.604;2023-04-28T11:25:55;6.63;;;2.70;;
60426;SDS011;46274;47.168;27.604;2023-04-28T11:31:59;8.47;;;2.60;;
60426;SDS011;46274;47.168;27.604;2023-04-28T11:38:05;6.73;;;2.77;;
60426;SDS011;46274;47.168;27.604;2023-04-28T11:44:08;14.60;;;3.10;;
60426;SDS011;46274;47.168;27.604;2023-04-28T11:50:36;5.77;;;2.50;;
60426;SDS011;46274;47.168;27.604;2023-04-28T11:56:45;6.53;;;2.97;;
60426;SDS011;46274;47.168;27.604;2023-04-28T12:02:48;7.27;;;2.57;;
60426;SDS011;46274;47.168;27.604;2023-04-28T12:08:52;9.27;;;3.13;;
60426;SDS011;46274;47.168;27.604;2023-04-28T12:20:59;7.30;;;2.87;;
60426;SDS011;46274;47.168;27.604;2023-04-28T12:27:19;12.87;;;2.63;;
60426;SDS011;46274;47.168;27.604;2023-04-28T12:33:28;7.50;;;3.10;;
60426;SDS011;46274;47.168;27.604;2023-04-28T12:39:49;7.53;;;2.00;;
60426;SDS011;46274;47.168;27.604;2023-04-28T12:45:53;12.63;;;2.67;;
60426;SDS011;46274;47.168;27.604;2023-04-28T12:52:18;8.10;;;2.87;;
60426;SDS011;46274;47.168;27.604;2023-04-28T12:58:22;4.60;;;2.40;;
60426;SDS011;46274;47.168;27.604;2023-04-28T13:04:32;12.67;;;2.27;;
60426;SDS011;46274;47.168;27.604;2023-04-28T13:10:38;16.70;;;2.20;;
60426;SDS011;46274;47.168;27.604;2023-04-28T13:16:44;7.77;;;3.00;;
60426;SDS011;46274;47.168;27.604;2023-04-28T13:22:48;8.47;;;2.33;;
60426;SDS011;46274;47.168;27.604;2023-04-28T13:28:57;6.23;;;2.50;;
60426;SDS011;46274;47.168;27.604;2023-04-28T13:35:01;12.33;;;1.87;;
60426;SDS011;46274;47.168;27.604;2023-04-28T13:41:12;3.90;;;1.90;;
60426;SDS011;46274;47.168;27.604;2023-04-28T13:47:45;4.43;;;2.20;;
60426;SDS011;46274;47.168;27.604;2023-04-28T13:53:49;5.33;;;2.07;;
60426;SDS011;46274;47.168;27.604;2023-04-28T13:59:54;7.37;;;1.97;;
60426;SDS011;46274;47.168;27.604;2023-04-28T14:06:05;8.37;;;2.67;;
60426;SDS011;46274;47.168;27.604;2023-04-28T14:12:36;13.47;;;1.90;;
60426;SDS011;46274;47.168;27.604;2023-04-28T14:18:47;4.87;;;1.77;;
60426;SDS011;46274;47.168;27.604;2023-04-28T14:24:50;5.93;;;1.83;;
60426;SDS011;46274;47.168;27.604;2023-04-28T14:31:13;3.53;;;2.00;;
60426;SDS011;46274;47.168;27.604;2023-04-28T14:37:18;6.73;;;2.00;;
60426;SDS011;46274;47.168;27.604;2023-04-28T14:43:31;8.13;;;2.00;;
60426;SDS011;46274;47.168;27.604;2023-04-28T14:49:49;5.23;;;2.03;;
60426;SDS011;46274;47.168;27.604;2023-04-28T14:55:57;16.60;;;2.10;;
60426;SDS011;46274;47.168;27.604;2023-04-28T15:02:21;3.60;;;1.60;;
60426;SDS011;46274;47.168;27.604;2023-04-28T15:08:31;5.90;;;1.70;;
60426;SDS011;46274;47.168;27.604;2023-04-28T15:14:37;6.33;;;2.37;;
60426;SDS011;46274;47.168;27.604;2023-04-28T15:20:51;5.13;;;2.07;;
60426;SDS011;46274;47.168;27.604;2023-04-28T15:27:00;8.63;;;1.90;;
60426;SDS011;46274;47.168;27.604;2023-04-28T15:33:10;5.93;;;2.17;;
60426;SDS011;46274;47.168;27.604;2023-04-28T15:39:18;12.87;;;2.80;;
60426;SDS011;46274;47.168;27.604;2023-04-28T15:45:41;5.97;;;2.30;;
60426;SDS011;46274;47.168;27.604;2023-04-28T15:51:45;8.57;;;3.07;;
60426;SDS011;46274;47.168;27.604;2023-04-28T15:57:48;7.17;;;2.47;;
60426;SDS011;46274;47.168;27.604;2023-04-28T16:04:00;5.07;;;2.47;;
60426;SDS011;46274;47.168;27.604;2023-04-28T16:10:18;9.93;;;2.73;;
60426;SDS011;46274;47.168;27.604;2023-04-28T16:16:20;7.53;;;2.50;;
60426;SDS011;46274;47.168;27.604;2023-04-28T16:22:30;6.20;;;2.17;;
60426;SDS011;46274;47.168;27.604;2023-04-28T16:28:33;8.07;;;2.70;;
60426;SDS011;46274;47.168;27.604;2023-04-28T16:34:36;6.77;;;2.30;;
60426;SDS011;46274;47.168;27.604;2023-04-28T16:40:38;6.93;;;2.70;;
60426;SDS011;46274;47.168;27.604;2023-04-28T16:46:43;5.53;;;2.83;;
60426;SDS011;46274;47.168;27.604;2023-04-28T16:52:45;11.30;;;3.30;;
60426;SDS011;46274;47.168;27.604;2023-04-28T16:58:50;8.23;;;3.43;;
60426;SDS011;46274;47.168;27.604;2023-04-28T17:04:56;7.77;;;3.27;;
60426;SDS011;46274;47.168;27.604;2023-04-28T17:10:59;8.47;;;3.43;;
60426;SDS011;46274;47.168;27.604;2023-04-28T17:17:04;11.43;;;3.70;;
60426;SDS011;46274;47.168;27.604;2023-04-28T17:23:06;8.97;;;3.33;;
60426;SDS011;46274;47.168;27.604;2023-04-28T17:29:11;12.93;;;3.63;;
60426;SDS011;46274;47.168;27.604;2023-04-28T17:35:18;12.73;;;3.87;;
60426;SDS011;46274;47.168;27.604;2023-04-28T17:41:21;11.33;;;3.83;;
60426;SDS011;46274;47.168;27.604;2023-04-28T17:47:24;11.33;;;4.13;;
60426;SDS011;46274;47.168;27.604;2023-04-28T17:53:28;13.67;;;4.93;;
60426;SDS011;46274;47.168;27.604;2023-04-28T17:59:30;10.83;;;4.80;;
60426;SDS011;46274;47.168;27.604;2023-04-28T18:05:36;16.53;;;6.67;;
60426;SDS011;46274;47.168;27.604;2023-04-28T18:11:41;12.83;;;5.00;;
60426;SDS011;46274;47.168;27.604;2023-04-28T18:18:04;19.97;;;5.27;;
60426;SDS011;46274;47.168;27.604;2023-04-28T18:24:06;10.80;;;5.10;;
60426;SDS011;46274;47.168;27.604;2023-04-28T18:30:09;10.20;;;4.07;;
60426;SDS011;46274;47.168;27.604;2023-04-28T18:36:12;9.50;;;3.90;;
60426;SDS011;46274;47.168;27.604;2023-04-28T18:42:15;12.43;;;4.07;;
60426;SDS011;46274;47.168;27.604;2023-04-28T18:48:18;7.97;;;3.17;;
60426;SDS011;46274;47.168;27.604;2023-04-28T18:54:21;36.93;;;11.37;;
60426;SDS011;46274;47.168;27.604;2023-04-28T19:00:23;38.23;;;13.63;;
60426;SDS011;46274;47.168;27.604;2023-04-28T19:06:26;27.90;;;11.67;;
60426;SDS011;46274;47.168;27.604;2023-04-28T19:12:28;23.17;;;8.40;;
60426;SDS011;46274;47.168;27.604;2023-04-28T19:18:31;32.70;;;11.50;;
60426;SDS011;46274;47.168;27.604;2023-04-28T19:24:36;25.43;;;9.07;;
60426;SDS011;46274;47.168;27.604;2023-04-28T19:30:40;21.27;;;8.43;;
60426;SDS011;46274;47.168;27.604;2023-04-28T19:36:42;17.73;;;8.37;;
60426;SDS011;46274;47.168;27.604;2023-04-28T19:42:45;15.00;;;6.83;;
60426;SDS011;46274;47.168;27.604;2023-04-28T19:48:49;13.87;;;6.23;;
60426;SDS011;46274;47.168;27.604;2023-04-28T19:54:51;9.93;;;4.43;;
60426;SDS011;46274;47.168;27.604;2023-04-28T20:00:54;14.03;;;6.20;;
60426;SDS011;46274;47.168;27.604;2023-04-28T20:06:56;28.40;;;11.67;;
60426;SDS011;46274;47.168;27.604;2023-04-28T20:12:59;16.53;;;5.97;;
60426;SDS011;46274;47.168;27.604;2023-04-28T20:19:02;15.43;;;6.53;;
60426;SDS011;46274;47.168;27.604;2023-04-28T20:25:05;13.37;;;6.40;;
60426;SDS011;46274;47.168;27.604;2023-04-28T20:31:11;12.10;;;5.37;;
60426;SDS011;46274;47.168;27.604;2023-04-28T20:37:15;19.83;;;7.83;;
60426;SDS011;46274;47.168;27.604;2023-04-28T20:43:18;12.23;;;6.00;;
60426;SDS011;46274;47.168;27.604;2023-04-28T20:49:22;15.30;;;6.63;;
60426;SDS011;46274;47.168;27.604;2023-04-28T20:55:25;10.87;;;5.57;;
60426;SDS011;46274;47.168;27.604;2023-04-28T21:01:29;13.27;;;5.40;;
60426;SDS011;46274;47.168;27.604;2023-04-28T21:07:31;10.20;;;5.13;;
60426;SDS011;46274;47.168;27.604;2023-04-28T21:13:34;12.30;;;5.77;;
60426;SDS011;46274;47.168;27.604;2023-04-28T21:19:36;13.47;;;5.30;;
60426;SDS011;46274;47.168;27.604;2023-04-28T21:25:39;13.33;;;6.33;;
60426;SDS011;46274;47.168;27.604;2023-04-28T21:31:41;9.83;;;5.10;;
60426;SDS011;46274;47.168;27.604;2023-04-28T21:37:44;10.63;;;5.33;;
60426;SDS011;46274;47.168;27.604;2023-04-28T21:43:46;20.17;;;8.27;;
60426;SDS011;46274;47.168;27.604;2023-04-28T21:49:49;17.80;;;7.80;;
60426;SDS011;46274;47.168;27.604;2023-04-28T21:55:51;20.57;;;9.47;;
60426;SDS011;46274;47.168;27.604;2023-04-28T22:01:54;20.67;;;10.10;;
60426;SDS011;46274;47.168;27.604;2023-04-28T22:07:57;31.60;;;11.50;;
60426;SDS011;46274;47.168;27.604;2023-04-28T22:14:02;40.50;;;12.07;;
60426;SDS011;46274;47.168;27.604;2023-04-28T22:20:05;13.47;;;5.87;;
60426;SDS011;46274;47.168;27.604;2023-04-28T22:26:09;6.73;;;3.50;;
60426;SDS011;46274;47.168;27.604;2023-04-28T22:32:11;9.40;;;4.70;;
60426;SDS011;46274;47.168;27.604;2023-04-28T22:38:13;10.13;;;4.20;;
60426;SDS011;46274;47.168;27.604;2023-04-28T22:44:16;10.43;;;4.87;;
60426;SDS011;46274;47.168;27.604;2023-04-28T22:50:18;14.30;;;6.10;;
60426;SDS011;46274;47.168;27.604;2023-04-28T22:56:21;10.03;;;4.93;;
60426;SDS011;46274;47.168;27.604;2023-04-28T23:02:23;13.57;;;5.63;;
60426;SDS011;46274;47.168;27.604;2023-04-28T23:08:26;23.67;;;9.27;;
60426;SDS011;46274;47.168;27.604;2023-04-28T23:14:29;26.73;;;10.83;;
60426;SDS011;46274;47.168;27.604;2023-04-28T23:20:32;16.63;;;7.43;;
60426;SDS011;46274;47.168;27.604;2023-04-28T23:26:34;33.77;;;11.70;;
60426;SDS011;46274;47.168;27.604;2023-04-28T23:32:39;32.40;;;8.97;;
60426;SDS011;46274;47.168;27.604;2023-04-28T23:38:42;28.10;;;9.40;;
60426;SDS011;46274;47.168;27.604;2023-04-28T23:44:45;34.03;;;10.13;;
60426;SDS011;46274;47.168;27.604;2023-04-28T23:50:47;24.53;;;8.97;;
60426;SDS011;46274;47.168;27.604;2023-04-28T23:56:51;16.10;;;7.43;;
